sensor_id;sensor_type;location;lat;lon;timestamp;P1;durP1;ratioP1;P2;durP2;ratioP2
19951;SDS011;10137;49.406;19.484;2022-07-04T00:01:42;12.07;;;7.60;;
19951;SDS011;10137;49.406;19.484;2022-07-04T00:04:09;12.18;;;7.30;;
19951;SDS011;10137;49.406;19.484;2022-07-04T00:06:36;12.65;;;7.72;;
19951;SDS011;10137;49.406;19.484;2022-07-04T00:09:04;10.15;;;7.03;;
19951;SDS011;10137;49.406;19.484;2022-07-04T00:11:32;11.68;;;7.47;;
19951;SDS011;10137;49.406;19.484;2022-07-04T00:13:59;11.43;;;7.63;;
19951;SDS011;10137;49.406;19.484;2022-07-04T00:16:26;10.10;;;6.70;;
19951;SDS011;10137;49.406;19.484;2022-07-04T00:18:54;12.83;;;7.50;;
19951;SDS011;10137;49.406;19.484;2022-07-04T00:21:21;12.93;;;7.73;;
19951;SDS011;10137;49.406;19.484;2022-07-04T00:23:48;10.43;;;7.43;;
19951;SDS011;10137;49.406;19.484;2022-07-04T00:26:16;10.37;;;6.83;;
19951;SDS011;10137;49.406;19.484;2022-07-04T00:28:44;11.00;;;7.10;;
19951;SDS011;10137;49.406;19.484;2022-07-04T00:31:11;12.13;;;6.60;;
19951;SDS011;10137;49.406;19.484;2022-07-04T00:33:38;11.97;;;7.00;;
19951;SDS011;10137;49.406;19.484;2022-07-04T00:36:05;10.53;;;6.67;;
19951;SDS011;10137;49.406;19.484;2022-07-04T00:38:32;11.53;;;7.17;;
19951;SDS011;10137;49.406;19.484;2022-07-04T00:40:59;11.00;;;7.17;;
19951;SDS011;10137;49.406;19.484;2022-07-04T00:43:28;9.80;;;6.93;;
19951;SDS011;10137;49.406;19.484;2022-07-04T00:45:55;12.27;;;7.23;;
19951;SDS011;10137;49.406;19.484;2022-07-04T00:48:22;12.53;;;7.37;;
19951;SDS011;10137;49.406;19.484;2022-07-04T00:50:49;13.83;;;7.23;;
19951;SDS011;10137;49.406;19.484;2022-07-04T00:53:16;10.93;;;6.80;;
19951;SDS011;10137;49.406;19.484;2022-07-04T00:55:45;10.27;;;7.20;;
19951;SDS011;10137;49.406;19.484;2022-07-04T00:58:12;11.43;;;7.37;;
19951;SDS011;10137;49.406;19.484;2022-07-04T01:00:41;10.03;;;6.80;;
19951;SDS011;10137;49.406;19.484;2022-07-04T01:03:08;11.07;;;7.50;;
19951;SDS011;10137;49.406;19.484;2022-07-04T01:05:35;11.70;;;7.63;;
19951;SDS011;10137;49.406;19.484;2022-07-04T01:08:02;11.30;;;7.50;;
19951;SDS011;10137;49.406;19.484;2022-07-04T01:10:30;11.73;;;7.47;;
19951;SDS011;10137;49.406;19.484;2022-07-04T01:12:57;10.47;;;7.37;;
19951;SDS011;10137;49.406;19.484;2022-07-04T01:15:24;11.43;;;7.70;;
19951;SDS011;10137;49.406;19.484;2022-07-04T01:17:53;11.63;;;7.70;;
19951;SDS011;10137;49.406;19.484;2022-07-04T01:20:21;10.30;;;7.03;;
19951;SDS011;10137;49.406;19.484;2022-07-04T01:22:49;12.40;;;8.03;;
19951;SDS011;10137;49.406;19.484;2022-07-04T01:25:16;10.70;;;7.60;;
19951;SDS011;10137;49.406;19.484;2022-07-04T01:27:43;10.97;;;7.83;;
19951;SDS011;10137;49.406;19.484;2022-07-04T01:30:10;11.83;;;7.77;;
19951;SDS011;10137;49.406;19.484;2022-07-04T01:32:37;12.33;;;7.57;;
19951;SDS011;10137;49.406;19.484;2022-07-04T01:35:05;14.23;;;7.70;;
19951;SDS011;10137;49.406;19.484;2022-07-04T01:37:34;10.93;;;6.83;;
19951;SDS011;10137;49.406;19.484;2022-07-04T01:40:01;11.23;;;6.97;;
19951;SDS011;10137;49.406;19.484;2022-07-04T01:42:28;10.90;;;7.27;;
19951;SDS011;10137;49.406;19.484;2022-07-04T01:44:55;10.60;;;7.50;;
19951;SDS011;10137;49.406;19.484;2022-07-04T01:47:22;11.27;;;6.90;;
19951;SDS011;10137;49.406;19.484;2022-07-04T01:49:49;11.57;;;7.27;;
19951;SDS011;10137;49.406;19.484;2022-07-04T01:52:16;11.53;;;7.27;;
19951;SDS011;10137;49.406;19.484;2022-07-04T01:54:45;10.93;;;7.03;;
19951;SDS011;10137;49.406;19.484;2022-07-04T01:57:11;11.13;;;7.10;;
19951;SDS011;10137;49.406;19.484;2022-07-04T01:59:38;11.20;;;7.07;;
19951;SDS011;10137;49.406;19.484;2022-07-04T02:02:23;10.77;;;7.40;;
19951;SDS011;10137;49.406;19.484;2022-07-04T02:04:50;12.10;;;7.13;;
19951;SDS011;10137;49.406;19.484;2022-07-04T02:07:17;12.67;;;7.70;;
19951;SDS011;10137;49.406;19.484;2022-07-04T02:09:46;10.47;;;6.97;;
19951;SDS011;10137;49.406;19.484;2022-07-04T02:12:13;10.27;;;6.70;;
19951;SDS011;10137;49.406;19.484;2022-07-04T02:14:57;10.30;;;7.13;;
19951;SDS011;10137;49.406;19.484;2022-07-04T02:17:24;11.50;;;6.87;;
19951;SDS011;10137;49.406;19.484;2022-07-04T02:19:52;10.90;;;7.13;;
19951;SDS011;10137;49.406;19.484;2022-07-04T02:22:19;13.90;;;7.67;;
19951;SDS011;10137;49.406;19.484;2022-07-04T02:24:47;12.10;;;7.23;;
19951;SDS011;10137;49.406;19.484;2022-07-04T02:27:14;13.03;;;7.50;;
19951;SDS011;10137;49.406;19.484;2022-07-04T02:29:41;9.93;;;7.00;;
19951;SDS011;10137;49.406;19.484;2022-07-04T02:32:09;11.13;;;7.70;;
19951;SDS011;10137;49.406;19.484;2022-07-04T02:34:36;11.40;;;7.43;;
19951;SDS011;10137;49.406;19.484;2022-07-04T02:37:03;13.50;;;7.40;;
19951;SDS011;10137;49.406;19.484;2022-07-04T02:39:31;12.03;;;7.40;;
19951;SDS011;10137;49.406;19.484;2022-07-04T02:41:59;12.73;;;7.30;;
19951;SDS011;10137;49.406;19.484;2022-07-04T02:44:26;10.73;;;7.53;;
19951;SDS011;10137;49.406;19.484;2022-07-04T02:46:53;11.00;;;7.27;;
19951;SDS011;10137;49.406;19.484;2022-07-04T02:49:20;12.27;;;7.53;;
19951;SDS011;10137;49.406;19.484;2022-07-04T02:51:47;13.57;;;7.27;;
19951;SDS011;10137;49.406;19.484;2022-07-04T02:54:15;10.43;;;6.70;;
19951;SDS011;10137;49.406;19.484;2022-07-04T02:56:42;10.93;;;7.07;;
19951;SDS011;10137;49.406;19.484;2022-07-04T02:59:10;12.70;;;7.23;;
19951;SDS011;10137;49.406;19.484;2022-07-04T03:01:38;10.33;;;7.00;;
19951;SDS011;10137;49.406;19.484;2022-07-04T03:04:05;11.40;;;6.97;;
19951;SDS011;10137;49.406;19.484;2022-07-04T03:06:32;11.87;;;7.17;;
19951;SDS011;10137;49.406;19.484;2022-07-04T03:08:59;12.13;;;7.27;;
19951;SDS011;10137;49.406;19.484;2022-07-04T03:11:26;9.23;;;6.60;;
19951;SDS011;10137;49.406;19.484;2022-07-04T03:13:53;10.03;;;7.17;;
19951;SDS011;10137;49.406;19.484;2022-07-04T03:16:22;10.50;;;7.10;;
19951;SDS011;10137;49.406;19.484;2022-07-04T03:18:48;12.47;;;7.57;;
19951;SDS011;10137;49.406;19.484;2022-07-04T03:21:15;13.20;;;6.77;;
19951;SDS011;10137;49.406;19.484;2022-07-04T03:23:42;11.50;;;7.57;;
19951;SDS011;10137;49.406;19.484;2022-07-04T03:26:22;11.80;;;7.50;;
19951;SDS011;10137;49.406;19.484;2022-07-04T03:28:50;11.80;;;7.07;;
19951;SDS011;10137;49.406;19.484;2022-07-04T03:31:17;13.17;;;7.40;;
19951;SDS011;10137;49.406;19.484;2022-07-04T03:33:45;10.57;;;7.07;;
19951;SDS011;10137;49.406;19.484;2022-07-04T03:36:12;12.73;;;8.07;;
19951;SDS011;10137;49.406;19.484;2022-07-04T03:38:39;10.83;;;6.50;;
19951;SDS011;10137;49.406;19.484;2022-07-04T03:41:06;11.17;;;7.00;;
19951;SDS011;10137;49.406;19.484;2022-07-04T03:43:33;11.40;;;6.70;;
19951;SDS011;10137;49.406;19.484;2022-07-04T03:46:00;11.23;;;7.00;;
19951;SDS011;10137;49.406;19.484;2022-07-04T03:48:27;9.53;;;6.67;;
19951;SDS011;10137;49.406;19.484;2022-07-04T03:50:55;12.13;;;7.17;;
19951;SDS011;10137;49.406;19.484;2022-07-04T03:53:23;13.80;;;7.43;;
19951;SDS011;10137;49.406;19.484;2022-07-04T03:55:50;10.93;;;7.20;;
19951;SDS011;10137;49.406;19.484;2022-07-04T03:58:17;10.93;;;6.90;;
19951;SDS011;10137;49.406;19.484;2022-07-04T04:00:46;13.37;;;7.47;;
19951;SDS011;10137;49.406;19.484;2022-07-04T04:03:16;14.53;;;7.60;;
19951;SDS011;10137;49.406;19.484;2022-07-04T04:06:02;11.23;;;7.10;;
19951;SDS011;10137;49.406;19.484;2022-07-04T04:08:29;15.67;;;7.37;;
19951;SDS011;10137;49.406;19.484;2022-07-04T04:10:56;10.97;;;7.30;;
19951;SDS011;10137;49.406;19.484;2022-07-04T04:13:23;11.03;;;7.23;;
19951;SDS011;10137;49.406;19.484;2022-07-04T04:15:50;11.73;;;7.13;;
19951;SDS011;10137;49.406;19.484;2022-07-04T04:18:17;10.60;;;6.70;;
19951;SDS011;10137;49.406;19.484;2022-07-04T04:20:44;11.13;;;6.93;;
19951;SDS011;10137;49.406;19.484;2022-07-04T04:23:12;10.57;;;7.37;;
19951;SDS011;10137;49.406;19.484;2022-07-04T04:25:39;9.37;;;6.60;;
19951;SDS011;10137;49.406;19.484;2022-07-04T04:28:06;11.03;;;7.17;;
19951;SDS011;10137;49.406;19.484;2022-07-04T04:30:33;24.87;;;8.83;;
19951;SDS011;10137;49.406;19.484;2022-07-04T04:33:00;11.27;;;7.20;;
19951;SDS011;10137;49.406;19.484;2022-07-04T04:35:27;10.73;;;6.70;;
19951;SDS011;10137;49.406;19.484;2022-07-04T04:37:54;11.13;;;6.93;;
19951;SDS011;10137;49.406;19.484;2022-07-04T04:40:23;10.73;;;7.00;;
19951;SDS011;10137;49.406;19.484;2022-07-04T04:42:50;11.65;;;6.90;;
19951;SDS011;10137;49.406;19.484;2022-07-04T04:45:17;11.97;;;7.20;;
19951;SDS011;10137;49.406;19.484;2022-07-04T04:47:44;13.50;;;7.20;;
19951;SDS011;10137;49.406;19.484;2022-07-04T04:50:11;10.85;;;7.05;;
19951;SDS011;10137;49.406;19.484;2022-07-04T04:52:39;11.65;;;6.97;;
19951;SDS011;10137;49.406;19.484;2022-07-04T04:55:07;9.35;;;6.35;;
19951;SDS011;10137;49.406;19.484;2022-07-04T04:57:36;11.75;;;6.97;;
19951;SDS011;10137;49.406;19.484;2022-07-04T05:00:03;9.23;;;6.43;;
19951;SDS011;10137;49.406;19.484;2022-07-04T05:02:31;9.57;;;6.55;;
19951;SDS011;10137;49.406;19.484;2022-07-04T05:04:58;8.75;;;6.60;;
19951;SDS011;10137;49.406;19.484;2022-07-04T05:07:25;10.93;;;7.18;;
19951;SDS011;10137;49.406;19.484;2022-07-04T05:09:52;9.27;;;6.78;;
19951;SDS011;10137;49.406;19.484;2022-07-04T05:12:24;13.20;;;6.45;;
19951;SDS011;10137;49.406;19.484;2022-07-04T05:14:53;13.38;;;7.20;;
19951;SDS011;10137;49.406;19.484;2022-07-04T05:17:20;11.30;;;7.00;;
19951;SDS011;10137;49.406;19.484;2022-07-04T05:19:47;10.88;;;6.53;;
19951;SDS011;10137;49.406;19.484;2022-07-04T05:22:14;13.20;;;6.65;;
19951;SDS011;10137;49.406;19.484;2022-07-04T05:24:41;11.77;;;6.90;;
19951;SDS011;10137;49.406;19.484;2022-07-04T05:27:08;10.80;;;6.80;;
19951;SDS011;10137;49.406;19.484;2022-07-04T05:29:36;11.63;;;6.20;;
19951;SDS011;10137;49.406;19.484;2022-07-04T05:32:05;13.65;;;6.32;;
19951;SDS011;10137;49.406;19.484;2022-07-04T05:34:33;10.75;;;7.03;;
19951;SDS011;10137;49.406;19.484;2022-07-04T05:37:00;12.48;;;6.35;;
19951;SDS011;10137;49.406;19.484;2022-07-04T05:39:28;21.98;;;7.10;;
19951;SDS011;10137;49.406;19.484;2022-07-04T05:41:55;12.07;;;6.38;;
19951;SDS011;10137;49.406;19.484;2022-07-04T05:44:22;9.45;;;6.65;;
19951;SDS011;10137;49.406;19.484;2022-07-04T05:46:49;8.68;;;6.47;;
19951;SDS011;10137;49.406;19.484;2022-07-04T05:49:17;15.85;;;6.97;;
19951;SDS011;10137;49.406;19.484;2022-07-04T05:51:44;10.45;;;5.75;;
19951;SDS011;10137;49.406;19.484;2022-07-04T05:54:11;8.00;;;5.75;;
19951;SDS011;10137;49.406;19.484;2022-07-04T05:56:38;11.63;;;5.70;;
19951;SDS011;10137;49.406;19.484;2022-07-04T05:59:07;8.27;;;6.07;;
19951;SDS011;10137;49.406;19.484;2022-07-04T06:01:34;12.52;;;6.50;;
19951;SDS011;10137;49.406;19.484;2022-07-04T06:04:01;8.52;;;5.57;;
19951;SDS011;10137;49.406;19.484;2022-07-04T06:06:30;10.02;;;6.00;;
19951;SDS011;10137;49.406;19.484;2022-07-04T06:08:57;12.48;;;6.40;;
19951;SDS011;10137;49.406;19.484;2022-07-04T06:11:24;14.20;;;6.32;;
19951;SDS011;10137;49.406;19.484;2022-07-04T06:13:51;11.45;;;6.10;;
19951;SDS011;10137;49.406;19.484;2022-07-04T06:16:18;13.20;;;6.07;;
19951;SDS011;10137;49.406;19.484;2022-07-04T06:18:45;11.43;;;6.03;;
19951;SDS011;10137;49.406;19.484;2022-07-04T06:21:12;13.05;;;5.82;;
19951;SDS011;10137;49.406;19.484;2022-07-04T06:23:41;11.45;;;5.10;;
19951;SDS011;10137;49.406;19.484;2022-07-04T06:26:08;11.05;;;6.13;;
19951;SDS011;10137;49.406;19.484;2022-07-04T06:28:35;10.20;;;6.68;;
19951;SDS011;10137;49.406;19.484;2022-07-04T06:31:02;9.25;;;6.43;;
19951;SDS011;10137;49.406;19.484;2022-07-04T06:33:29;14.35;;;7.32;;
19951;SDS011;10137;49.406;19.484;2022-07-04T06:35:56;13.93;;;7.47;;
19951;SDS011;10137;49.406;19.484;2022-07-04T06:38:24;11.32;;;7.05;;
19951;SDS011;10137;49.406;19.484;2022-07-04T06:40:54;10.45;;;7.15;;
19951;SDS011;10137;49.406;19.484;2022-07-04T06:43:22;13.20;;;7.85;;
19951;SDS011;10137;49.406;19.484;2022-07-04T06:45:51;14.77;;;8.02;;
19951;SDS011;10137;49.406;19.484;2022-07-04T06:48:18;9.07;;;6.57;;
19951;SDS011;10137;49.406;19.484;2022-07-04T06:50:46;10.05;;;7.43;;
19951;SDS011;10137;49.406;19.484;2022-07-04T06:53:13;12.68;;;7.10;;
19951;SDS011;10137;49.406;19.484;2022-07-04T06:55:41;11.60;;;7.25;;
19951;SDS011;10137;49.406;19.484;2022-07-04T06:58:10;8.43;;;6.72;;
19951;SDS011;10137;49.406;19.484;2022-07-04T07:07:20;12.20;;;8.38;;
19951;SDS011;10137;49.406;19.484;2022-07-04T07:09:49;9.50;;;7.25;;
19951;SDS011;10137;49.406;19.484;2022-07-04T07:12:16;12.13;;;6.78;;
19951;SDS011;10137;49.406;19.484;2022-07-04T07:14:45;13.18;;;6.97;;
19951;SDS011;10137;49.406;19.484;2022-07-04T07:17:12;9.85;;;6.28;;
19951;SDS011;10137;49.406;19.484;2022-07-04T07:19:40;11.32;;;6.75;;
19951;SDS011;10137;49.406;19.484;2022-07-04T07:22:07;10.90;;;6.93;;
19951;SDS011;10137;49.406;19.484;2022-07-04T07:24:34;13.25;;;6.60;;
19951;SDS011;10137;49.406;19.484;2022-07-04T07:27:02;8.00;;;5.85;;
19951;SDS011;10137;49.406;19.484;2022-07-04T07:29:29;12.82;;;6.85;;
19951;SDS011;10137;49.406;19.484;2022-07-04T07:31:58;7.95;;;5.72;;
19951;SDS011;10137;49.406;19.484;2022-07-04T07:34:25;9.10;;;6.47;;
19951;SDS011;10137;49.406;19.484;2022-07-04T07:36:52;8.57;;;6.10;;
19951;SDS011;10137;49.406;19.484;2022-07-04T07:39:19;10.77;;;5.40;;
19951;SDS011;10137;49.406;19.484;2022-07-04T07:41:46;10.20;;;5.65;;
19951;SDS011;10137;49.406;19.484;2022-07-04T07:44:13;9.23;;;6.15;;
19951;SDS011;10137;49.406;19.484;2022-07-04T07:46:40;9.90;;;6.20;;
19951;SDS011;10137;49.406;19.484;2022-07-04T07:49:08;7.93;;;5.53;;
19951;SDS011;10137;49.406;19.484;2022-07-04T07:51:36;9.50;;;5.40;;
19951;SDS011;10137;49.406;19.484;2022-07-04T07:54:03;7.13;;;5.28;;
19951;SDS011;10137;49.406;19.484;2022-07-04T07:56:30;6.93;;;5.22;;
19951;SDS011;10137;49.406;19.484;2022-07-04T07:58:57;10.05;;;4.85;;
19951;SDS011;10137;49.406;19.484;2022-07-04T08:01:24;5.55;;;4.28;;
19951;SDS011;10137;49.406;19.484;2022-07-04T08:03:52;5.53;;;4.22;;
19951;SDS011;10137;49.406;19.484;2022-07-04T08:06:38;8.75;;;4.57;;
19951;SDS011;10137;49.406;19.484;2022-07-04T08:09:05;5.13;;;3.83;;
19951;SDS011;10137;49.406;19.484;2022-07-04T08:11:32;5.82;;;3.55;;
19951;SDS011;10137;49.406;19.484;2022-07-04T08:13:59;4.65;;;3.70;;
19951;SDS011;10137;49.406;19.484;2022-07-04T08:16:26;7.80;;;3.90;;
19951;SDS011;10137;49.406;19.484;2022-07-04T08:18:53;5.05;;;3.40;;
19951;SDS011;10137;49.406;19.484;2022-07-04T08:21:21;3.53;;;2.85;;
19951;SDS011;10137;49.406;19.484;2022-07-04T08:23:49;4.15;;;2.88;;
19951;SDS011;10137;49.406;19.484;2022-07-04T08:26:16;3.70;;;3.10;;
19951;SDS011;10137;49.406;19.484;2022-07-04T08:28:43;5.50;;;3.28;;
19951;SDS011;10137;49.406;19.484;2022-07-04T08:31:10;3.88;;;2.85;;
19951;SDS011;10137;49.406;19.484;2022-07-04T08:33:37;4.20;;;3.00;;
19951;SDS011;10137;49.406;19.484;2022-07-04T08:36:04;6.00;;;3.80;;
19951;SDS011;10137;49.406;19.484;2022-07-04T08:38:31;4.15;;;3.40;;
19951;SDS011;10137;49.406;19.484;2022-07-04T08:41:02;4.38;;;3.25;;
19951;SDS011;10137;49.406;19.484;2022-07-04T08:43:30;10.38;;;3.20;;
19951;SDS011;10137;49.406;19.484;2022-07-04T08:46:00;5.28;;;2.72;;
19951;SDS011;10137;49.406;19.484;2022-07-04T08:48:30;2.80;;;2.22;;
19951;SDS011;10137;49.406;19.484;2022-07-04T08:50:59;3.10;;;2.53;;
19951;SDS011;10137;49.406;19.484;2022-07-04T08:53:36;4.45;;;2.42;;
19951;SDS011;10137;49.406;19.484;2022-07-04T08:56:07;1.63;;;1.35;;
19951;SDS011;10137;49.406;19.484;2022-07-04T08:58:52;3.78;;;1.10;;
19951;SDS011;10137;49.406;19.484;2022-07-04T09:01:21;3.72;;;1.30;;
19951;SDS011;10137;49.406;19.484;2022-07-04T09:03:50;1.13;;;1.00;;
19951;SDS011;10137;49.406;19.484;2022-07-04T09:06:17;2.83;;;1.00;;
19951;SDS011;10137;49.406;19.484;2022-07-04T09:08:45;1.58;;;1.00;;
19951;SDS011;10137;49.406;19.484;2022-07-04T09:11:13;2.40;;;1.15;;
19951;SDS011;10137;49.406;19.484;2022-07-04T09:13:40;1.05;;;0.95;;
19951;SDS011;10137;49.406;19.484;2022-07-04T09:16:07;1.00;;;0.90;;
19951;SDS011;10137;49.406;19.484;2022-07-04T09:18:36;1.55;;;1.13;;
19951;SDS011;10137;49.406;19.484;2022-07-04T09:21:04;6.03;;;1.00;;
19951;SDS011;10137;49.406;19.484;2022-07-04T09:23:34;1.88;;;1.10;;
19951;SDS011;10137;49.406;19.484;2022-07-04T09:26:07;1.42;;;1.00;;
19951;SDS011;10137;49.406;19.484;2022-07-04T09:28:42;1.38;;;0.90;;
19951;SDS011;10137;49.406;19.484;2022-07-04T09:31:14;1.10;;;1.00;;
19951;SDS011;10137;49.406;19.484;2022-07-04T09:33:45;2.35;;;0.85;;
19951;SDS011;10137;49.406;19.484;2022-07-04T09:36:18;1.92;;;0.98;;
19951;SDS011;10137;49.406;19.484;2022-07-04T09:38:48;1.98;;;1.13;;
19951;SDS011;10137;49.406;19.484;2022-07-04T09:41:31;1.23;;;1.08;;
19951;SDS011;10137;49.406;19.484;2022-07-04T09:44:16;1.27;;;1.02;;
19951;SDS011;10137;49.406;19.484;2022-07-04T09:46:44;2.63;;;1.10;;
19951;SDS011;10137;49.406;19.484;2022-07-04T09:49:11;1.83;;;1.00;;
19951;SDS011;10137;49.406;19.484;2022-07-04T09:51:39;2.30;;;0.88;;
19951;SDS011;10137;49.406;19.484;2022-07-04T09:54:14;2.70;;;0.88;;
19951;SDS011;10137;49.406;19.484;2022-07-04T09:56:51;3.35;;;0.80;;
19951;SDS011;10137;49.406;19.484;2022-07-04T09:59:21;1.10;;;1.00;;
19951;SDS011;10137;49.406;19.484;2022-07-04T10:01:49;2.72;;;0.93;;
19951;SDS011;10137;49.406;19.484;2022-07-04T10:04:17;1.88;;;1.40;;
19951;SDS011;10137;49.406;19.484;2022-07-04T10:06:46;1.70;;;1.00;;
19951;SDS011;10137;49.406;19.484;2022-07-04T10:09:14;1.40;;;1.02;;
19951;SDS011;10137;49.406;19.484;2022-07-04T10:11:42;1.98;;;1.10;;
19951;SDS011;10137;49.406;19.484;2022-07-04T10:14:11;2.40;;;1.10;;
19951;SDS011;10137;49.406;19.484;2022-07-04T10:16:40;2.40;;;1.00;;
19951;SDS011;10137;49.406;19.484;2022-07-04T10:19:09;1.08;;;0.98;;
19951;SDS011;10137;49.406;19.484;2022-07-04T10:21:37;2.60;;;1.20;;
19951;SDS011;10137;49.406;19.484;2022-07-04T10:24:05;4.43;;;1.15;;
19951;SDS011;10137;49.406;19.484;2022-07-04T10:26:33;2.53;;;1.00;;
19951;SDS011;10137;49.406;19.484;2022-07-04T10:29:00;3.00;;;1.40;;
19951;SDS011;10137;49.406;19.484;2022-07-04T10:31:28;1.98;;;1.40;;
19951;SDS011;10137;49.406;19.484;2022-07-04T10:33:58;1.40;;;1.30;;
19951;SDS011;10137;49.406;19.484;2022-07-04T10:36:27;3.20;;;1.20;;
19951;SDS011;10137;49.406;19.484;2022-07-04T10:38:56;1.30;;;1.20;;
19951;SDS011;10137;49.406;19.484;2022-07-04T10:41:25;1.75;;;1.30;;
19951;SDS011;10137;49.406;19.484;2022-07-04T10:43:54;1.95;;;1.13;;
19951;SDS011;10137;49.406;19.484;2022-07-04T10:46:32;2.40;;;1.20;;
19951;SDS011;10137;49.406;19.484;2022-07-04T10:49:05;2.92;;;1.30;;
19951;SDS011;10137;49.406;19.484;2022-07-04T10:51:40;3.70;;;1.42;;
19951;SDS011;10137;49.406;19.484;2022-07-04T10:54:10;1.98;;;1.33;;
19951;SDS011;10137;49.406;19.484;2022-07-04T10:56:40;1.77;;;1.38;;
19951;SDS011;10137;49.406;19.484;2022-07-04T10:59:13;3.13;;;1.15;;
19951;SDS011;10137;49.406;19.484;2022-07-04T11:01:47;2.55;;;0.90;;
19951;SDS011;10137;49.406;19.484;2022-07-04T11:07:13;1.88;;;1.00;;
19951;SDS011;10137;49.406;19.484;2022-07-04T11:09:40;1.77;;;1.05;;
19951;SDS011;10137;49.406;19.484;2022-07-04T11:12:09;1.00;;;0.90;;
19951;SDS011;10137;49.406;19.484;2022-07-04T11:14:39;0.98;;;0.90;;
19951;SDS011;10137;49.406;19.484;2022-07-04T11:17:07;1.30;;;1.00;;
19951;SDS011;10137;49.406;19.484;2022-07-04T11:19:36;1.30;;;0.90;;
19951;SDS011;10137;49.406;19.484;2022-07-04T11:22:05;2.72;;;1.13;;
19951;SDS011;10137;49.406;19.484;2022-07-04T11:24:34;3.33;;;1.27;;
19951;SDS011;10137;49.406;19.484;2022-07-04T11:27:01;2.88;;;1.00;;
19951;SDS011;10137;49.406;19.484;2022-07-04T11:29:30;1.35;;;0.95;;
19951;SDS011;10137;49.406;19.484;2022-07-04T11:31:57;1.20;;;1.00;;
19951;SDS011;10137;49.406;19.484;2022-07-04T11:34:24;1.83;;;1.30;;
19951;SDS011;10137;49.406;19.484;2022-07-04T11:36:51;1.15;;;1.05;;
19951;SDS011;10137;49.406;19.484;2022-07-04T11:39:20;1.10;;;0.80;;
19951;SDS011;10137;49.406;19.484;2022-07-04T11:41:48;2.38;;;1.23;;
19951;SDS011;10137;49.406;19.484;2022-07-04T11:44:35;3.00;;;1.30;;
19951;SDS011;10137;49.406;19.484;2022-07-04T11:47:31;3.53;;;1.10;;
19951;SDS011;10137;49.406;19.484;2022-07-04T11:50:00;1.52;;;1.15;;
19951;SDS011;10137;49.406;19.484;2022-07-04T11:52:30;4.13;;;0.93;;
19951;SDS011;10137;49.406;19.484;2022-07-04T11:55:07;1.90;;;1.10;;
19951;SDS011;10137;49.406;19.484;2022-07-04T11:57:36;1.52;;;1.20;;
19951;SDS011;10137;49.406;19.484;2022-07-04T12:00:04;1.27;;;0.77;;
19951;SDS011;10137;49.406;19.484;2022-07-04T12:02:34;4.93;;;0.98;;
19951;SDS011;10137;49.406;19.484;2022-07-04T12:05:02;0.95;;;0.93;;
19951;SDS011;10137;49.406;19.484;2022-07-04T12:07:30;1.40;;;0.90;;
19951;SDS011;10137;49.406;19.484;2022-07-04T12:10:07;3.70;;;1.00;;
19951;SDS011;10137;49.406;19.484;2022-07-04T12:12:49;2.50;;;1.15;;
19951;SDS011;10137;49.406;19.484;2022-07-04T12:15:17;2.67;;;0.98;;
19951;SDS011;10137;49.406;19.484;2022-07-04T12:17:48;6.18;;;1.60;;
19951;SDS011;10137;49.406;19.484;2022-07-04T12:20:17;1.50;;;1.40;;
19951;SDS011;10137;49.406;19.484;2022-07-04T12:22:49;1.83;;;1.40;;
19951;SDS011;10137;49.406;19.484;2022-07-04T12:25:22;1.63;;;1.00;;
19951;SDS011;10137;49.406;19.484;2022-07-04T12:27:54;1.60;;;1.20;;
19951;SDS011;10137;49.406;19.484;2022-07-04T12:30:23;5.97;;;1.30;;
19951;SDS011;10137;49.406;19.484;2022-07-04T12:32:52;1.40;;;1.20;;
19951;SDS011;10137;49.406;19.484;2022-07-04T12:38:17;1.80;;;1.20;;
19951;SDS011;10137;49.406;19.484;2022-07-04T12:40:55;1.80;;;1.40;;
19951;SDS011;10137;49.406;19.484;2022-07-04T12:43:24;2.78;;;1.45;;
19951;SDS011;10137;49.406;19.484;2022-07-04T12:45:52;1.77;;;1.33;;
19951;SDS011;10137;49.406;19.484;2022-07-04T12:48:22;1.30;;;1.10;;
19951;SDS011;10137;49.406;19.484;2022-07-04T12:50:51;2.28;;;1.20;;
19951;SDS011;10137;49.406;19.484;2022-07-04T12:53:19;2.42;;;1.30;;
19951;SDS011;10137;49.406;19.484;2022-07-04T12:55:47;1.92;;;1.20;;
19951;SDS011;10137;49.406;19.484;2022-07-04T12:58:16;1.40;;;1.08;;
19951;SDS011;10137;49.406;19.484;2022-07-04T13:00:43;2.45;;;1.30;;
19951;SDS011;10137;49.406;19.484;2022-07-04T13:03:10;1.90;;;1.40;;
19951;SDS011;10137;49.406;19.484;2022-07-04T13:05:38;3.55;;;1.30;;
19951;SDS011;10137;49.406;19.484;2022-07-04T13:08:05;2.67;;;1.15;;
19951;SDS011;10137;49.406;19.484;2022-07-04T13:10:32;2.67;;;1.40;;
19951;SDS011;10137;49.406;19.484;2022-07-04T13:13:00;2.05;;;1.20;;
19951;SDS011;10137;49.406;19.484;2022-07-04T13:15:31;3.63;;;1.25;;
19951;SDS011;10137;49.406;19.484;2022-07-04T13:17:58;2.80;;;1.50;;
19951;SDS011;10137;49.406;19.484;2022-07-04T13:20:25;2.88;;;1.20;;
19951;SDS011;10137;49.406;19.484;2022-07-04T13:22:53;1.65;;;1.33;;
19951;SDS011;10137;49.406;19.484;2022-07-04T13:25:20;2.70;;;1.63;;
19951;SDS011;10137;49.406;19.484;2022-07-04T13:27:47;2.50;;;1.27;;
19951;SDS011;10137;49.406;19.484;2022-07-04T13:30:14;1.75;;;1.33;;
19951;SDS011;10137;49.406;19.484;2022-07-04T13:32:43;1.38;;;1.08;;
19951;SDS011;10137;49.406;19.484;2022-07-04T13:35:10;2.85;;;1.17;;
19951;SDS011;10137;49.406;19.484;2022-07-04T13:37:37;3.55;;;1.50;;
19951;SDS011;10137;49.406;19.484;2022-07-04T13:40:04;2.60;;;1.58;;
19951;SDS011;10137;49.406;19.484;2022-07-04T13:42:32;2.45;;;1.30;;
19951;SDS011;10137;49.406;19.484;2022-07-04T13:45:17;4.93;;;1.17;;
19951;SDS011;10137;49.406;19.484;2022-07-04T13:47:45;2.80;;;1.40;;
19951;SDS011;10137;49.406;19.484;2022-07-04T13:50:12;3.05;;;1.70;;
19951;SDS011;10137;49.406;19.484;2022-07-04T13:52:39;1.55;;;1.20;;
19951;SDS011;10137;49.406;19.484;2022-07-04T13:55:06;1.35;;;1.20;;
19951;SDS011;10137;49.406;19.484;2022-07-04T13:57:34;2.80;;;1.63;;
19951;SDS011;10137;49.406;19.484;2022-07-04T14:00:02;3.05;;;1.70;;
19951;SDS011;10137;49.406;19.484;2022-07-04T14:02:30;4.60;;;1.75;;
19951;SDS011;10137;49.406;19.484;2022-07-04T14:04:59;2.53;;;1.80;;
19951;SDS011;10137;49.406;19.484;2022-07-04T14:07:26;6.18;;;1.70;;
19951;SDS011;10137;49.406;19.484;2022-07-04T14:09:53;2.22;;;1.40;;
19951;SDS011;10137;49.406;19.484;2022-07-04T14:12:20;2.95;;;1.17;;
19951;SDS011;10137;49.406;19.484;2022-07-04T14:14:47;1.20;;;1.10;;
19951;SDS011;10137;49.406;19.484;2022-07-04T14:17:15;3.30;;;1.05;;
19951;SDS011;10137;49.406;19.484;2022-07-04T14:19:42;1.33;;;0.90;;
19951;SDS011;10137;49.406;19.484;2022-07-04T14:22:10;1.65;;;1.00;;
19951;SDS011;10137;49.406;19.484;2022-07-04T14:24:37;5.53;;;1.35;;
19951;SDS011;10137;49.406;19.484;2022-07-04T14:27:04;3.85;;;1.10;;
19951;SDS011;10137;49.406;19.484;2022-07-04T14:29:31;2.15;;;1.10;;
19951;SDS011;10137;49.406;19.484;2022-07-04T14:31:59;4.18;;;1.10;;
19951;SDS011;10137;49.406;19.484;2022-07-04T14:34:26;2.08;;;0.77;;
19951;SDS011;10137;49.406;19.484;2022-07-04T14:36:53;4.50;;;1.25;;
19951;SDS011;10137;49.406;19.484;2022-07-04T14:39:21;2.03;;;1.20;;
19951;SDS011;10137;49.406;19.484;2022-07-04T14:41:49;3.42;;;1.10;;
19951;SDS011;10137;49.406;19.484;2022-07-04T14:44:17;1.35;;;1.10;;
19951;SDS011;10137;49.406;19.484;2022-07-04T14:46:44;3.53;;;1.10;;
19951;SDS011;10137;49.406;19.484;2022-07-04T14:49:11;1.10;;;1.00;;